Terminal Aerodrome Forecast
Issued by NWS Jackson, KY

Home | Current Version | Previous Version | Text Only | Print | Product List | Glossary On
Versions: 1 2 3 4 5 6 7 8 9 10 11 12 13 14 15 16 17
000
FTUS43 KJKL 300600 AAA
TAFLOZ
TAF AMD
KLOZ 300629Z 3006/0106 00000KT 2SM BR BKN002
     FM300800 00000KT 1/4SM FG VV002
     FM301230 00000KT 4SM BR BKN002
     FM301400 VRB03KT P6SM SKC=

USA.gov is the U.S. government's official web portal to all federal, state and local government web resources and services.